Time;durP1;ratioP1;P1;durP2;ratioP2;P2;SDS_P1;SDS_P2;PMS_P1;PMS_P2;Temp;Humidity;BMP_temperature;BMP_pressure;BME280_temperature;BME280_humidity;BME280_pressure;Samples;Min_cycle;Max_cycle;Signal;HPM_P1;HPM_P2
2022/12/17 13:07:42;;;;;;;65.72;37.45;;;;;;;-3.89;100.00;102428.50;10259351;28;20039;-83
2022/12/17 13:12:46;;;;;;;76.97;41.00;;;;;;;-3.96;100.00;102431.00;10284396;28;20047;-78
2022/12/17 13:18:01;;;;;;;68.25;36.70;;;;;;;-4.07;100.00;102421.88;10276555;28;20143;-83
2022/12/17 13:23:10;;;;;;;68.60;40.85;;;;;;;-3.95;100.00;102430.28;10266778;28;20047;-82
2022/12/17 13:28:27;;;;;;;75.60;46.50;;;;;;;-4.05;100.00;102429.06;10284754;28;20058;-82
2022/12/17 13:34:06;;;;;;;79.32;41.10;;;;;;;-4.11;100.00;102429.88;10267788;28;20078;-82
2022/12/17 13:39:10;;;;;;;67.07;37.10;;;;;;;-4.25;100.00;102423.88;10285400;28;20050;-82
2022/12/17 13:44:20;;;;;;;75.65;41.17;;;;;;;-4.34;100.00;102407.31;10280563;28;20514;-82
2022/12/17 13:49:28;;;;;;;80.53;42.15;;;;;;;-4.81;100.00;102424.19;10268750;28;20066;-82
2022/12/17 13:54:29;;;;;;;79.10;44.08;;;;;;;-4.78;100.00;102423.72;10265920;28;20202;-82
2022/12/17 13:59:29;;;;;;;86.73;50.20;;;;;;;-4.86;100.00;102435.44;10265319;28;20433;-82
2022/12/17 14:04:30;;;;;;;85.40;49.60;;;;;;;-4.91;100.00;102442.50;10281488;28;20077;-82
2022/12/17 14:09:36;;;;;;;95.73;49.13;;;;;;;-4.92;100.00;102442.28;10267645;28;20118;-82
2022/12/17 14:14:42;;;;;;;94.10;49.70;;;;;;;-5.07;100.00;102438.59;10284951;28;20395;-82
2022/12/17 14:19:42;;;;;;;85.45;45.00;;;;;;;-5.17;100.00;102444.06;10283025;28;20046;-82
2022/12/17 14:24:43;;;;;;;73.07;45.63;;;;;;;-5.11;100.00;102444.91;10263901;28;20042;-81
2022/12/17 14:29:45;;;;;;;96.07;53.53;;;;;;;-5.07;100.00;102451.34;10277157;28;20035;-82
2022/12/17 14:34:45;;;;;;;91.68;51.17;;;;;;;-5.00;100.00;102456.56;10281764;28;20517;-81
2022/12/17 14:39:46;;;;;;;94.97;55.00;;;;;;;-5.06;100.00;102463.41;10279341;28;20045;-81
2022/12/17 14:45:01;;;;;;;101.80;55.47;;;;;;;-5.21;100.00;102469.88;10279605;28;20027;-81
2022/12/17 14:50:16;;;;;;;114.50;61.15;;;;;;;-5.41;100.00;102470.63;10280468;28;20395;-82
2022/12/17 14:55:21;;;;;;;111.22;65.88;;;;;;;-5.43;100.00;102466.94;10281466;28;20094;-82
2022/12/17 15:00:22;;;;;;;87.57;53.15;;;;;;;-5.37;100.00;102469.44;10265613;28;20034;-81
2022/12/17 15:05:22;;;;;;;114.13;62.13;;;;;;;-5.46;100.00;102475.13;10276509;28;20062;-81
2022/12/17 15:10:23;;;;;;;119.10;69.87;;;;;;;-5.46;100.00;102476.75;10279527;28;20551;-81
2022/12/17 15:15:23;;;;;;;109.80;58.80;;;;;;;-5.48;100.00;102473.06;10275089;28;20043;-82
2022/12/17 15:20:24;;;;;;;95.07;59.60;;;;;;;-5.51;100.00;102480.28;10260992;28;20038;-82
2022/12/17 15:25:24;;;;;;;133.50;68.47;;;;;;;-5.55;100.00;102483.13;10279251;28;20483;-81
2022/12/17 15:30:25;;;;;;;118.43;68.33;;;;;;;-5.62;100.00;102492.50;10274766;28;20042;-81
2022/12/17 15:35:25;;;;;;;137.03;72.23;;;;;;;-5.64;100.00;102500.66;10275039;28;20403;-81
2022/12/17 15:40:26;;;;;;;127.50;73.03;;;;;;;-5.66;100.00;102499.53;10256359;28;20480;-80
2022/12/17 15:45:26;;;;;;;147.17;73.77;;;;;;;-5.60;100.00;102497.81;10255886;28;20055;-80
2022/12/17 15:50:27;;;;;;;120.80;70.30;;;;;;;-5.60;100.00;102511.47;10268661;28;20487;-82
2022/12/17 15:55:28;;;;;;;126.13;68.57;;;;;;;-5.63;100.00;102505.94;10273688;28;20122;-81
2022/12/17 16:00:28;;;;;;;127.87;68.97;;;;;;;-5.69;100.00;102507.66;10275923;28;20049;-80
2022/12/17 16:05:29;;;;;;;124.50;71.57;;;;;;;-5.69;100.00;102510.19;10274894;28;20178;-81
2022/12/17 16:10:29;;;;;;;124.73;72.50;;;;;;;-5.70;100.00;102513.47;10275154;28;20034;-79
2022/12/17 16:15:30;;;;;;;132.53;72.50;;;;;;;-5.68;100.00;102521.34;10293603;28;20186;-79
2022/12/17 16:20:30;;;;;;;175.70;98.13;;;;;;;-5.76;100.00;102525.38;10286947;28;20046;-79
2022/12/17 16:25:31;;;;;;;153.43;76.07;;;;;;;-5.75;100.00;102517.00;10259807;28;20142;-78
2022/12/17 16:30:31;;;;;;;136.27;77.20;;;;;;;-5.73;100.00;102519.78;10256201;28;20163;-78
2022/12/17 16:35:32;;;;;;;160.70;80.83;;;;;;;-5.79;100.00;102523.31;10226782;28;20142;-78
2022/12/17 16:40:32;;;;;;;141.73;74.97;;;;;;;-5.88;100.00;102524.59;10254095;28;20498;-80
2022/12/17 16:45:33;;;;;;;143.83;68.00;;;;;;;-5.90;100.00;102539.66;10276468;28;20039;-79
2022/12/17 16:50:33;;;;;;;121.90;68.23;;;;;;;-5.96;100.00;102541.34;10285262;28;20394;-78
2022/12/17 16:55:41;;;;;;;133.47;67.83;;;;;;;-6.01;100.00;102528.72;10278085;28;20134;-78
2022/12/17 17:00:41;;;;;;;141.93;75.75;;;;;;;-6.03;100.00;102531.03;10262199;28;20049;-78
2022/12/17 17:05:42;;;;;;;181.70;73.97;;;;;;;-6.09;100.00;102531.09;10309472;28;20133;-77
2022/12/17 17:10:42;;;;;;;135.63;74.90;;;;;;;-6.10;100.00;102534.38;10310431;28;20056;-78
2022/12/17 17:15:43;;;;;;;140.43;75.20;;;;;;;-6.10;100.00;102541.06;10309345;28;20043;-80
2022/12/17 17:20:44;;;;;;;117.80;68.43;;;;;;;-6.17;100.00;102534.19;10299574;28;20034;-79
2022/12/17 17:25:47;;;;;;;127.10;67.57;;;;;;;-6.25;100.00;102539.84;10246271;28;20063;-80
2022/12/17 17:30:47;;;;;;;127.93;64.90;;;;;;;-6.31;100.00;102534.78;10256143;28;20050;-79
2022/12/17 17:35:48;;;;;;;116.97;65.70;;;;;;;-6.36;100.00;102541.78;10249267;28;20133;-79
2022/12/17 17:40:53;;;;;;;130.17;64.90;;;;;;;-6.49;100.00;102543.31;10262738;28;20122;-79
2022/12/17 17:46:12;;;;;;;97.43;56.47;;;;;;;-6.75;100.00;102540.50;10261646;28;20042;-79
2022/12/17 17:51:29;;;;;;;98.77;53.93;;;;;;;-6.83;100.00;102541.94;10266675;28;20547;-79
2022/12/17 17:56:33;;;;;;;85.40;49.27;;;;;;;-6.86;100.00;102550.75;10273071;28;20387;-79
2022/12/17 18:01:38;;;;;;;102.10;53.67;;;;;;;-6.98;100.00;102544.81;10318931;28;20041;-78
2022/12/17 18:06:40;;;;;;;122.20;47.80;;;;;;;-6.84;100.00;102554.44;10321239;28;20034;-79
2022/12/17 18:11:41;;;;;;;97.32;54.92;;;;;;;-6.94;100.00;102552.19;10302453;28;20050;-78
2022/12/17 18:16:42;;;;;;;91.22;50.20;;;;;;;-6.98;100.00;102553.38;10240362;28;20043;-78
2022/12/17 18:21:43;;;;;;;103.13;52.92;;;;;;;-7.06;100.00;102545.31;10237582;28;20039;-78
2022/12/17 18:26:45;;;;;;;;;;;;;;;-7.23;100.00;102553.97;10222168;28;20404;-77
2022/12/17 18:31:45;;;;;;;82.33;45.27;;;;;;;-7.30;100.00;102553.78;10239101;28;19926;-78
2022/12/17 18:36:46;;;;;;;88.17;48.27;;;;;;;-7.26;100.00;102551.94;10234559;28;20451;-79
2022/12/17 18:47:06;;;;;;;139.20;55.27;;;;;;;-7.23;100.00;102553.97;10275963;28;20039;-81
2022/12/17 18:52:06;;;;;;;100.93;47.43;;;;;;;-7.17;100.00;102557.41;10278529;28;20042;-81
2022/12/17 18:57:07;;;;;;;143.37;54.60;;;;;;;-7.17;100.00;102553.97;10272092;28;20131;-81
2022/12/17 19:02:11;;;;;;;138.67;53.60;;;;;;;-7.13;100.00;102557.16;10280865;28;20146;-78
2022/12/17 19:07:11;;;;;;;111.07;55.57;;;;;;;-7.05;100.00;102555.75;10264050;28;20039;-81
2022/12/17 19:12:12;;;;;;;85.13;46.10;;;;;;;-7.26;100.00;102563.72;10258353;28;20035;-80
2022/12/17 19:17:12;;;;;;;125.63;52.97;;;;;;;-7.35;100.00;102563.31;10272657;28;20142;-81
2022/12/17 19:22:13;;;;;;;118.90;49.20;;;;;;;-7.31;100.00;102554.50;10274852;28;20043;-80
2022/12/17 19:27:13;;;;;;;109.60;53.33;;;;;;;-7.35;100.00;102562.38;10273871;28;20054;-78
2022/12/17 19:32:14;;;;;;;109.30;48.67;;;;;;;-7.41;100.00;102570.03;10277162;28;20057;-81
2022/12/17 19:37:14;;;;;;;65.67;37.53;;;;;;;-7.44;100.00;102573.03;10276558;28;20475;-81
2022/12/17 19:42:23;;;;;;;159.67;63.47;;;;;;;-7.51;100.00;102593.19;10256376;28;20035;-80
2022/12/17 19:47:23;;;;;;;103.23;51.13;;;;;;;-7.55;100.00;102604.56;10262975;28;20049;-81
2022/12/17 19:52:24;;;;;;;129.33;56.63;;;;;;;-7.63;100.00;102605.03;10277445;28;20045;-81
2022/12/17 19:57:24;;;;;;;136.00;62.70;;;;;;;-7.65;100.00;102608.03;10277745;28;20050;-81
2022/12/17 20:02:25;;;;;;;88.87;54.77;;;;;;;-7.80;100.00;102610.16;10275846;28;20070;-81
2022/12/17 20:07:25;;;;;;;93.27;57.03;;;;;;;-7.99;100.00;102604.88;10276013;28;20129;-81
2022/12/17 20:12:26;;;;;;;102.83;51.17;;;;;;;-8.17;100.00;102592.88;10276424;28;20458;-81
2022/12/17 20:17:27;;;;;;;105.33;56.47;;;;;;;-7.98;100.00;102599.09;10274092;28;20051;-81
2022/12/17 20:22:28;;;;;;;106.60;53.77;;;;;;;-8.01;100.00;102587.56;10276722;28;20059;-81
2022/12/17 20:27:28;;;;;;;104.03;58.92;;;;;;;-8.20;100.00;102588.94;10279472;28;20151;-80
2022/12/17 20:32:32;;;;;;;96.87;56.77;;;;;;;-8.37;100.00;102591.50;10266285;28;20182;-80
2022/12/17 20:37:32;;;;;;;90.70;52.03;;;;;;;-8.56;100.00;102610.00;10275967;28;20055;-80
2022/12/17 20:42:33;;;;;;;107.37;57.40;;;;;;;-8.71;100.00;102611.16;10259367;28;20155;-80
2022/12/17 20:47:33;;;;;;;115.83;59.83;;;;;;;-8.75;100.00;102612.97;10269762;28;20047;-80
2022/12/17 20:52:34;;;;;;;100.67;59.23;;;;;;;-8.67;100.00;102606.53;10241311;28;20126;-80
2022/12/17 20:57:34;;;;;;;101.07;55.63;;;;;;;-8.53;100.00;102593.38;10274085;28;20141;-80
2022/12/17 21:02:35;;;;;;;104.87;54.07;;;;;;;-8.63;100.00;102584.38;10256226;28;20042;-80
2022/12/17 21:07:36;;;;;;;99.90;51.40;;;;;;;-8.86;100.00;102591.03;10275697;28;20039;-80
2022/12/17 21:17:56;;;;;;;102.63;54.50;;;;;;;-9.16;100.00;102596.72;10277713;28;20047;-84
2022/12/17 21:22:56;;;;;;;81.47;49.27;;;;;;;-9.18;100.00;102593.03;10283607;28;20031;-83
2022/12/17 21:27:57;;;;;;;90.73;44.97;;;;;;;-9.35;100.00;102586.97;10270075;28;20043;-82
2022/12/17 21:32:57;;;;;;;81.57;43.37;;;;;;;-9.41;100.00;102575.88;10282978;28;20042;-80
2022/12/17 21:37:58;;;;;;;84.63;48.17;;;;;;;-9.33;100.00;102600.81;10280316;28;20043;-81
2022/12/17 21:43:01;;;;;;;106.37;48.77;;;;;;;-9.31;100.00;102600.38;10281710;28;20049;-80
2022/12/17 21:48:03;;;;;;;84.53;43.13;;;;;;;-9.29;100.00;102610.75;10278851;28;20098;-81
2022/12/17 21:53:04;;;;;;;80.00;40.20;;;;;;;-9.29;100.00;102613.28;10281422;28;20043;-80
2022/12/17 21:58:05;;;;;;;65.63;35.63;;;;;;;-9.35;100.00;102618.34;10280564;28;20039;-81
2022/12/17 22:03:05;;;;;;;70.93;43.28;;;;;;;-9.40;100.00;102623.38;10272622;28;20395;-81
2022/12/17 22:08:06;;;;;;;79.23;40.40;;;;;;;-9.39;100.00;102627.75;10248881;28;20046;-80
2022/12/17 22:18:28;;;;;;;66.20;37.20;;;;;;;-9.58;100.00;102635.03;10258211;28;20055;-79
2022/12/17 22:23:28;;;;;;;72.27;42.67;;;;;;;-9.50;100.00;102642.22;10272117;28;20137;-80
2022/12/17 22:28:29;;;;;;;68.03;38.63;;;;;;;-9.44;100.00;102634.66;10280079;28;20507;-81
2022/12/17 22:33:29;;;;;;;85.10;43.90;;;;;;;-9.40;100.00;102643.66;10280786;28;20133;-81
2022/12/17 22:38:30;;;;;;;66.20;33.73;;;;;;;-9.57;100.00;102641.97;10278794;28;20593;-80
2022/12/17 22:43:31;;;;;;;60.93;37.83;;;;;;;-9.57;100.00;102659.69;10246021;28;20047;-80
2022/12/17 22:48:31;;;;;;;70.07;39.33;;;;;;;-9.62;100.00;102655.53;10269901;28;20050;-80
2022/12/17 22:53:32;;;;;;;62.07;35.97;;;;;;;-9.62;100.00;102643.78;10280230;28;20035;-80
2022/12/17 22:58:35;;;;;;;59.67;36.63;;;;;;;-9.53;100.00;102641.75;10278087;28;20097;-80
2022/12/17 23:03:36;;;;;;;65.90;37.03;;;;;;;-9.54;100.00;102634.81;10278587;28;20546;-78
2022/12/17 23:08:37;;;;;;;64.63;36.40;;;;;;;-9.48;100.00;102617.13;10278303;28;20050;-80
2022/12/17 23:13:37;;;;;;;66.73;34.40;;;;;;;-9.54;100.00;102628.84;10259896;28;20126;-80
2022/12/17 23:18:41;;;;;;;62.73;36.50;;;;;;;-9.62;100.00;102615.91;10277253;28;20392;-80
2022/12/17 23:23:42;;;;;;;56.93;30.23;;;;;;;-9.76;100.00;102615.38;10281536;28;20034;-80
2022/12/17 23:28:43;;;;;;;70.07;36.47;;;;;;;-9.90;100.00;102604.00;10259936;28;20039;-81
2022/12/17 23:33:43;;;;;;;58.07;34.23;;;;;;;-9.99;100.00;102602.56;10273736;28;20045;-80
2022/12/17 23:38:44;;;;;;;55.20;29.57;;;;;;;-10.20;100.00;102605.16;10279091;28;20034;-80
2022/12/17 23:43:45;;;;;;;63.83;31.80;;;;;;;-10.19;100.00;102591.81;10261459;28;20446;-79
2022/12/17 23:48:46;;;;;;;59.35;31.13;;;;;;;-10.24;100.00;102601.22;10275486;28;20045;-81
2022/12/17 23:53:46;;;;;;;61.50;31.52;;;;;;;-10.25;100.00;102619.63;10261740;28;20503;-80
2022/12/17 23:58:47;;;;;;;59.93;33.20;;;;;;;-10.29;100.00;102617.28;10276555;28;20039;-80
